createdAt,value
2023-03-01T00:01:09.034Z,17.80
2023-03-01T00:06:15.421Z,17.80
2023-03-01T00:11:24.985Z,17.90
2023-03-01T00:16:37.304Z,18.00
2023-03-01T00:21:44.128Z,17.90
2023-03-01T00:26:50.428Z,17.90
2023-03-01T00:31:56.911Z,18.00
2023-03-01T00:37:08.459Z,18.10
2023-03-01T00:42:14.723Z,18.20
2023-03-01T00:47:20.103Z,18.20
2023-03-01T00:52:26.440Z,18.20
2023-03-01T00:57:32.053Z,18.30
2023-03-01T01:02:38.528Z,18.40
2023-03-01T01:07:45.513Z,18.40
2023-03-01T01:12:51.765Z,18.50
2023-03-01T01:17:57.913Z,18.50
2023-03-01T01:23:04.420Z,18.50
2023-03-01T01:28:10.562Z,18.70
2023-03-01T01:33:16.523Z,18.80
2023-03-01T01:38:24.240Z,18.90
2023-03-01T01:43:41.421Z,19.40
2023-03-01T01:49:02.013Z,19.60
2023-03-01T01:54:41.421Z,19.80
2023-03-01T01:59:51.103Z,19.80
2023-03-01T02:05:06.758Z,19.50
2023-03-01T02:10:14.081Z,19.60
2023-03-01T02:15:22.453Z,19.50
2023-03-01T02:20:38.599Z,19.40
2023-03-01T02:25:45.087Z,19.40
2023-03-01T02:31:11.225Z,19.50
2023-03-01T02:36:23.142Z,19.50
2023-03-01T02:41:32.888Z,19.60
2023-03-01T02:46:53.820Z,19.70
2023-03-01T02:52:19.839Z,19.70
2023-03-01T02:57:30.098Z,19.60
2023-03-01T03:02:39.688Z,19.50
2023-03-01T03:07:54.877Z,19.20
2023-03-01T03:13:10.393Z,19.30
2023-03-01T03:18:23.020Z,19.50
2023-03-01T03:23:29.569Z,19.40
2023-03-01T03:28:36.164Z,19.30
2023-03-01T03:33:42.490Z,19.20
2023-03-01T03:38:48.593Z,19.40
2023-03-01T03:43:55.093Z,19.50
2023-03-01T03:49:05.301Z,19.80
2023-03-01T03:54:29.691Z,20.00
2023-03-01T03:59:36.415Z,20.60
2023-03-01T04:04:42.907Z,20.80
2023-03-01T04:09:49.037Z,20.90
2023-03-01T04:14:55.270Z,21.00
2023-03-01T04:20:08.446Z,21.10
2023-03-01T04:25:17.134Z,21.10
2023-03-01T04:30:28.150Z,21.00
2023-03-01T04:35:37.492Z,20.70
2023-03-01T04:40:45.275Z,20.30
2023-03-01T04:45:53.543Z,20.20
2023-03-01T04:51:00.714Z,20.50
2023-03-01T04:56:16.783Z,20.70
2023-03-01T05:01:24.265Z,20.70
2023-03-01T05:06:30.844Z,20.60
2023-03-01T05:11:38.738Z,20.80
2023-03-01T05:16:45.197Z,21.40
2023-03-01T05:22:07.591Z,21.40
2023-03-01T05:27:14.977Z,21.30
2023-03-01T05:32:22.161Z,22.00
2023-03-01T05:37:28.370Z,22.10
2023-03-01T05:42:34.402Z,22.10
2023-03-01T05:47:46.223Z,22.20
2023-03-01T05:53:19.396Z,21.70
2023-03-01T05:58:26.917Z,21.60
2023-03-01T06:03:36.451Z,21.80
2023-03-01T06:08:42.956Z,21.90
2023-03-01T06:13:49.662Z,21.90
2023-03-01T06:18:55.861Z,22.10
2023-03-01T06:24:01.726Z,21.70
2023-03-01T06:29:08.065Z,21.60
2023-03-01T06:34:30.101Z,21.60
2023-03-01T06:39:37.192Z,22.00
2023-03-01T06:44:43.552Z,22.10
2023-03-01T06:49:49.827Z,22.10
2023-03-01T06:54:58.422Z,22.20
2023-03-01T07:00:04.807Z,21.90
2023-03-01T07:05:11.431Z,21.70
2023-03-01T07:10:20.581Z,21.90
2023-03-01T07:15:27.830Z,22.00
2023-03-01T07:20:34.233Z,22.00
2023-03-01T07:25:40.435Z,22.10
2023-03-01T07:30:47.526Z,22.00
2023-03-01T07:36:04.088Z,21.60
2023-03-01T07:41:09.963Z,21.40
2023-03-01T07:46:15.917Z,21.20
2023-03-01T07:51:25.200Z,21.00
2023-03-01T07:56:31.784Z,21.00
2023-03-01T08:01:38.022Z,21.00
2023-03-01T08:06:46.862Z,21.10
2023-03-01T08:11:52.892Z,21.10
2023-03-01T08:17:00.609Z,21.20
2023-03-01T08:22:07.386Z,21.30
2023-03-01T08:27:14.967Z,21.40
2023-03-01T08:32:21.717Z,21.50
2023-03-01T08:37:29.302Z,21.70
2023-03-01T08:42:37.076Z,21.70
2023-03-01T08:47:44.283Z,21.80
2023-03-01T08:52:50.572Z,21.80
2023-03-01T08:57:57.101Z,21.70
2023-03-01T09:03:03.399Z,21.50
2023-03-01T09:08:11.704Z,21.50
2023-03-01T09:13:18.116Z,21.20
2023-03-01T09:18:24.121Z,21.10
2023-03-01T09:23:30.425Z,21.10
2023-03-01T09:28:37.158Z,21.10
2023-03-01T09:33:45.072Z,21.00
2023-03-01T09:38:51.855Z,21.00
2023-03-01T09:44:03.983Z,20.90
2023-03-01T09:49:22.466Z,20.90
2023-03-01T09:54:29.095Z,20.90
2023-03-01T10:00:02.978Z,20.90
2023-03-01T10:05:25.869Z,20.90
2023-03-01T10:10:37.603Z,20.90
2023-03-01T10:16:03.371Z,20.90
2023-03-01T10:21:21.894Z,20.90
2023-03-01T10:26:58.686Z,20.90
2023-03-01T10:32:09.283Z,20.90
2023-03-01T10:37:22.867Z,20.80
2023-03-01T10:42:35.219Z,20.80
2023-03-01T10:47:41.588Z,20.70
2023-03-01T10:53:03.341Z,20.70
2023-03-01T10:58:25.055Z,20.60
2023-03-01T11:03:40.876Z,20.60
2023-03-01T11:08:54.971Z,20.50
2023-03-01T11:14:05.143Z,20.50
2023-03-01T11:19:15.888Z,20.50
2023-03-01T11:24:25.585Z,20.50
2023-03-01T12:19:25.360Z,20.40
2023-03-01T12:37:53.501Z,20.40
2023-03-01T12:43:22.038Z,20.40
2023-03-01T12:48:38.153Z,20.40
2023-03-01T12:53:54.552Z,20.30
2023-03-01T12:59:05.627Z,20.30
2023-03-01T13:04:56.409Z,20.40
2023-03-01T13:10:09.822Z,20.30
2023-03-01T13:15:47.432Z,20.30
2023-03-01T13:20:58.983Z,20.30
2023-03-01T13:26:21.842Z,20.30
2023-03-01T13:31:41.991Z,20.40
2023-03-01T13:36:52.876Z,20.30
2023-03-01T13:42:00.958Z,20.30
2023-03-01T13:47:21.637Z,20.30
2023-03-01T13:53:20.126Z,20.30
2023-03-01T13:58:37.940Z,20.20
2023-03-01T14:03:50.299Z,20.20
2023-03-01T14:09:20.611Z,20.20
2023-03-01T14:14:51.362Z,20.30
2023-03-01T14:20:07.287Z,20.30
2023-03-01T14:25:33.327Z,20.30
2023-03-01T14:30:53.234Z,20.40
2023-03-01T14:36:09.842Z,20.30
2023-03-01T14:41:32.076Z,20.30
2023-03-01T14:46:48.780Z,20.30
2023-03-01T14:52:08.719Z,20.30
2023-03-01T14:57:34.558Z,20.40
2023-03-01T15:02:42.419Z,20.40
2023-03-01T15:07:52.631Z,20.30
2023-03-01T15:12:59.989Z,20.40
2023-03-01T15:18:16.740Z,20.30
2023-03-01T15:23:30.260Z,20.30
2023-03-01T15:28:53.343Z,20.30
2023-03-01T15:34:26.395Z,20.20
2023-03-01T15:40:05.688Z,20.20
2023-03-01T15:45:26.572Z,20.20
2023-03-01T15:50:39.015Z,20.20
2023-03-01T15:55:46.642Z,20.20
2023-03-01T16:01:01.180Z,20.20
2023-03-01T16:06:08.224Z,20.20
2023-03-01T16:11:21.989Z,20.20
2023-03-01T16:16:28.285Z,20.20
2023-03-01T16:21:36.268Z,20.20
2023-03-01T16:26:42.815Z,20.20
2023-03-01T16:31:49.586Z,20.20
2023-03-01T16:36:56.017Z,20.30
2023-03-01T16:42:04.545Z,20.20
2023-03-01T16:47:10.627Z,20.20
2023-03-01T16:52:17.164Z,20.30
2023-03-01T16:57:23.359Z,20.40
2023-03-01T17:02:29.696Z,20.40
2023-03-01T17:07:36.890Z,20.30
2023-03-01T17:12:43.288Z,20.30
2023-03-01T17:17:53.421Z,20.40
2023-03-01T17:23:00.207Z,20.40
2023-03-01T17:28:06.199Z,20.40
2023-03-01T17:33:12.506Z,20.20
2023-03-01T17:38:18.341Z,20.20
2023-03-01T17:43:24.414Z,20.20
2023-03-01T17:48:30.875Z,20.30
2023-03-01T17:53:37.725Z,20.40
2023-03-01T17:58:44.097Z,20.40
2023-03-01T18:03:50.389Z,20.20
2023-03-01T18:08:56.900Z,20.30
2023-03-01T18:14:03.665Z,20.30
2023-03-01T18:19:09.859Z,20.20
2023-03-01T18:24:15.983Z,20.20
2023-03-01T18:29:21.876Z,20.10
2023-03-01T18:34:28.476Z,20.00
2023-03-01T18:39:33.855Z,20.00
2023-03-01T18:44:40.131Z,19.90
2023-03-01T18:49:46.817Z,19.90
2023-03-01T18:54:52.893Z,20.00
2023-03-01T18:59:59.273Z,20.10
2023-03-01T19:05:05.803Z,20.20
2023-03-01T19:10:11.570Z,20.20
2023-03-01T19:15:18.323Z,20.20
2023-03-01T19:20:24.256Z,20.20
2023-03-01T19:25:30.176Z,20.10
2023-03-01T19:30:36.276Z,20.20
2023-03-01T19:35:42.545Z,20.00
2023-03-01T19:40:48.992Z,20.00
2023-03-01T19:45:56.792Z,19.90
2023-03-01T19:51:03.014Z,19.80
2023-03-01T19:56:09.888Z,19.80
2023-03-01T20:01:25.875Z,19.80
2023-03-01T20:06:32.971Z,19.70
2023-03-01T20:11:39.517Z,19.70
2023-03-01T20:16:46.142Z,19.70
2023-03-01T20:21:51.523Z,19.70
2023-03-01T20:26:57.900Z,19.70
2023-03-01T20:32:04.785Z,19.70
2023-03-01T20:37:11.221Z,19.70
2023-03-01T20:42:18.160Z,19.70
2023-03-01T20:47:24.917Z,19.70
2023-03-01T20:52:39.292Z,19.70
2023-03-01T20:57:49.351Z,19.80
2023-03-01T21:02:55.957Z,19.80
2023-03-01T21:08:04.675Z,19.80
2023-03-01T21:13:12.292Z,19.70
2023-03-01T21:18:19.128Z,19.70
2023-03-01T21:23:25.652Z,19.70
2023-03-01T21:28:34.133Z,19.70
2023-03-01T21:33:42.081Z,19.80
2023-03-01T21:38:50.726Z,19.80
2023-03-01T21:44:04.782Z,19.70
2023-03-01T21:49:14.121Z,19.60
2023-03-01T21:54:21.642Z,19.70
2023-03-01T21:59:28.664Z,19.80
2023-03-01T22:04:34.865Z,19.70
2023-03-01T22:09:42.146Z,19.70
2023-03-01T22:14:48.590Z,19.80
2023-03-01T22:19:54.786Z,19.80
2023-03-01T22:25:01.126Z,19.80
2023-03-01T22:30:12.801Z,19.80
2023-03-01T22:35:19.118Z,19.90
2023-03-01T22:40:24.606Z,19.80
2023-03-01T22:45:34.274Z,19.80
2023-03-01T22:50:41.334Z,19.80
2023-03-01T22:55:48.240Z,19.90
2023-03-01T23:00:54.722Z,19.80
2023-03-01T23:06:01.272Z,19.80
2023-03-01T23:11:11.923Z,19.80
2023-03-01T23:16:19.158Z,19.80
2023-03-01T23:21:25.365Z,19.70
2023-03-01T23:26:32.738Z,19.60
2023-03-01T23:31:41.586Z,19.80
2023-03-01T23:36:49.346Z,19.80
2023-03-01T23:41:55.877Z,19.80
2023-03-01T23:47:02.739Z,19.80
2023-03-01T23:52:09.512Z,19.80
2023-03-01T23:57:15.463Z,19.90
